createdAt,value
2023-02-03T00:09:13.544Z,4.55
2023-02-03T00:10:13.752Z,4.45
2023-02-03T00:11:13.962Z,4.41
2023-02-03T00:12:14.216Z,4.31
2023-02-03T00:13:14.441Z,4.30
2023-02-03T00:14:14.695Z,4.25
2023-02-03T00:15:14.950Z,4.28
2023-02-03T00:16:15.160Z,4.35
2023-02-03T00:17:15.378Z,4.32
2023-02-03T00:18:15.586Z,4.34
2023-02-03T00:19:17.545Z,4.34
2023-02-03T00:20:15.800Z,4.47
2023-02-03T00:21:15.811Z,4.44
2023-02-03T00:22:15.837Z,4.55
2023-02-03T00:23:15.852Z,4.32
2023-02-03T00:24:15.892Z,4.30
2023-02-03T00:25:15.918Z,4.39
2023-02-03T00:26:15.952Z,4.42
2023-02-03T00:27:15.965Z,4.52
2023-02-03T00:28:16.146Z,4.62
2023-02-03T00:29:15.940Z,4.66
2023-02-03T00:54:03.416Z,4.32
2023-02-03T00:55:03.633Z,4.37
2023-02-03T00:56:03.848Z,4.56
2023-02-03T00:57:04.073Z,4.59
2023-02-03T00:58:04.284Z,4.66
2023-02-03T00:59:04.516Z,4.77
2023-02-03T01:00:04.729Z,4.59
2023-02-03T01:01:04.974Z,4.66
2023-02-03T01:02:05.260Z,4.70
2023-02-03T01:03:05.325Z,4.80
2023-02-03T01:04:05.460Z,4.73
2023-02-03T01:05:05.749Z,4.65
2023-02-03T01:06:05.951Z,4.59
2023-02-03T01:07:06.153Z,4.51
2023-02-03T01:08:06.338Z,4.67
2023-02-03T01:09:06.538Z,4.49
2023-02-03T01:10:06.727Z,4.66
2023-02-03T01:11:06.927Z,4.66
2023-02-03T01:12:07.156Z,4.65
2023-02-03T01:13:07.362Z,4.79
2023-02-03T01:14:07.544Z,4.55
2023-02-03T01:15:07.716Z,4.55
2023-02-03T01:16:08.028Z,4.69
2023-02-03T01:17:08.113Z,4.58
2023-02-03T01:18:08.301Z,4.38
2023-02-03T01:19:08.475Z,4.42
2023-02-03T01:20:08.705Z,4.51
2023-02-03T01:21:08.901Z,4.66
2023-02-03T01:22:09.109Z,4.55
2023-02-03T01:23:09.319Z,4.31
2023-02-03T01:24:09.539Z,4.20
2023-02-03T01:43:13.387Z,3.83
2023-02-03T01:44:13.657Z,4.00
2023-02-03T01:45:13.856Z,3.97
2023-02-03T01:46:14.121Z,4.01
2023-02-03T01:47:14.250Z,3.98
2023-02-03T01:48:14.459Z,3.98
2023-02-03T01:49:14.667Z,4.11
2023-02-03T01:50:14.883Z,4.05
2023-02-03T01:51:15.074Z,4.04
2023-02-03T01:52:15.273Z,4.10
2023-02-03T01:53:15.478Z,4.13
2023-02-03T01:54:15.652Z,4.04
2023-02-03T01:56:15.996Z,4.28
2023-02-03T02:34:23.486Z,3.85
2023-02-03T02:35:23.759Z,4.04
2023-02-03T02:36:23.896Z,4.03
2023-02-03T02:37:24.128Z,4.11
2023-02-03T02:38:24.360Z,4.21
2023-02-03T02:39:24.602Z,4.30
2023-02-03T02:40:25.318Z,4.39
2023-02-03T02:41:24.826Z,4.38
2023-02-03T02:42:24.823Z,4.45
2023-02-03T02:43:24.814Z,4.45
2023-02-03T02:44:24.800Z,4.49
2023-02-03T02:45:24.775Z,4.65
2023-02-03T02:46:24.806Z,4.69
2023-02-03T02:47:24.711Z,4.58
2023-02-03T02:48:24.774Z,4.34
2023-02-03T02:49:24.663Z,4.38
2023-02-03T02:50:24.997Z,4.38
2023-02-03T02:51:24.594Z,4.38
2023-02-03T02:52:24.569Z,4.25
2023-02-03T02:53:24.537Z,4.37
2023-02-03T02:54:24.525Z,4.52
2023-02-03T02:55:24.603Z,4.48
2023-02-03T02:56:24.522Z,4.49
2023-02-03T02:57:24.641Z,4.53
2023-02-03T02:58:24.807Z,4.69
2023-02-03T02:59:25.051Z,4.74
2023-02-03T03:00:25.567Z,4.59
2023-02-03T03:01:25.204Z,4.74
2023-02-03T03:02:25.183Z,4.70
2023-02-03T03:03:25.182Z,4.47
2023-02-03T03:04:25.239Z,4.47
2023-02-03T03:05:25.388Z,4.32
2023-02-03T03:06:25.547Z,4.41
2023-02-03T03:07:25.729Z,4.60
2023-02-03T03:08:25.980Z,4.65
2023-02-03T03:09:26.146Z,4.51
2023-02-03T03:10:26.803Z,4.67
2023-02-03T03:11:27.036Z,4.86
2023-02-03T03:12:26.392Z,4.94
2023-02-03T03:13:26.421Z,5.07
2023-02-03T03:14:26.427Z,5.08
2023-02-03T03:15:26.447Z,5.07
2023-02-03T03:16:26.641Z,5.21
2023-02-03T03:17:26.927Z,5.29
2023-02-03T03:18:27.043Z,5.41
2023-02-03T03:19:27.216Z,5.47
2023-02-03T03:20:27.965Z,5.54
2023-02-03T03:21:27.471Z,5.46
2023-02-03T03:22:27.498Z,5.22
2023-02-03T03:23:27.484Z,4.87
2023-02-03T03:24:27.507Z,4.24
2023-02-03T03:25:27.546Z,4.15
2023-02-03T03:26:27.590Z,4.30
2023-02-03T03:27:27.602Z,4.39
2023-02-03T03:28:27.629Z,4.45
2023-02-03T03:29:27.615Z,4.17
2023-02-03T03:30:28.169Z,4.18
2023-02-03T03:31:27.750Z,4.20
2023-02-03T03:32:27.720Z,4.35
2023-02-03T03:33:27.751Z,4.47
2023-02-03T03:34:27.774Z,4.56
2023-02-03T03:35:27.801Z,4.59
2023-02-03T03:36:27.819Z,4.42
2023-02-03T03:37:27.818Z,4.49
2023-02-03T03:38:27.909Z,4.66
2023-02-03T03:39:28.072Z,4.59
2023-02-03T03:40:28.528Z,4.80
2023-02-03T03:41:28.522Z,4.66
2023-02-03T03:42:30.734Z,4.62
2023-02-03T03:43:28.648Z,4.80
2023-02-03T03:44:28.611Z,4.88
2023-02-03T03:45:28.572Z,4.91
2023-02-03T03:46:28.540Z,4.86
2023-02-03T03:47:28.481Z,4.72
2023-02-03T03:48:28.442Z,4.67
2023-02-03T03:49:28.396Z,4.84
2023-02-03T03:50:28.592Z,4.86
2023-02-03T03:51:28.331Z,4.77
2023-02-03T03:52:28.285Z,4.41
2023-02-03T03:53:28.263Z,4.44
2023-02-03T03:54:28.199Z,4.49
2023-02-03T03:55:28.332Z,4.37
2023-02-03T03:56:28.618Z,4.45
2023-02-03T03:57:28.792Z,4.25
2023-02-03T03:58:28.988Z,3.92
2023-02-03T03:59:29.206Z,4.05
2023-02-03T04:00:29.601Z,4.15
2023-02-03T04:01:29.715Z,4.22
2023-02-03T04:02:29.908Z,4.30
2023-02-03T04:03:29.981Z,4.44
2023-02-03T04:21:33.380Z,4.15
2023-02-03T04:22:33.567Z,3.92
2023-02-03T04:23:33.833Z,4.05
2023-02-03T04:24:34.045Z,4.28
2023-02-03T04:25:34.256Z,4.27
2023-02-03T04:26:34.524Z,4.48
2023-02-03T04:27:34.790Z,4.51
2023-02-03T04:28:34.982Z,3.93
2023-02-03T04:29:35.187Z,4.08
2023-02-03T04:30:35.527Z,3.89
2023-02-03T04:31:35.737Z,3.90
2023-02-03T04:32:35.901Z,4.07
2023-02-03T04:33:36.194Z,4.03
2023-02-03T04:34:36.329Z,4.07
2023-02-03T04:35:36.520Z,4.15
2023-02-03T05:10:43.485Z,3.94
2023-02-03T05:11:43.699Z,3.83
2023-02-03T05:12:43.897Z,4.01
2023-02-03T05:13:44.104Z,4.00
2023-02-03T05:14:44.305Z,3.90
2023-02-03T05:15:44.522Z,4.07
2023-02-03T05:16:46.282Z,3.82
2023-02-03T05:17:44.749Z,3.48
2023-02-03T05:18:44.730Z,3.46
2023-02-03T05:19:44.737Z,3.44
2023-02-03T05:20:44.740Z,3.36
2023-02-03T05:21:44.753Z,3.23
2023-02-03T05:22:44.745Z,3.34
2023-02-03T05:23:44.753Z,3.31
2023-02-03T05:24:44.758Z,3.42
2023-02-03T05:25:44.785Z,3.31
2023-02-03T05:26:44.784Z,2.75
2023-02-03T05:27:44.837Z,2.85
2023-02-03T05:28:44.785Z,2.96
2023-02-03T05:29:44.770Z,2.88
2023-02-03T05:30:44.865Z,2.96
2023-02-03T05:31:44.879Z,3.02
2023-02-03T05:32:44.778Z,3.35
2023-02-03T05:33:44.753Z,3.52
2023-02-03T05:34:44.756Z,3.58
2023-02-03T05:35:44.740Z,3.27
2023-02-03T05:36:44.737Z,3.39
2023-02-03T05:37:44.712Z,3.16
2023-02-03T05:38:44.699Z,3.45
2023-02-03T05:39:44.677Z,3.38
2023-02-03T05:40:44.668Z,3.51
2023-02-03T05:41:44.719Z,3.52
2023-02-03T05:42:44.757Z,3.63
2023-02-03T05:43:44.790Z,3.23
2023-02-03T05:44:44.813Z,3.54
2023-02-03T05:45:44.916Z,3.39
2023-02-03T05:46:45.051Z,3.10
2023-02-03T05:47:45.148Z,2.83
2023-02-03T05:48:45.157Z,2.98
2023-02-03T05:49:45.175Z,3.17
2023-02-03T05:50:45.211Z,3.23
2023-02-03T05:51:45.224Z,3.42
2023-02-03T05:52:45.212Z,3.55
2023-02-03T05:53:45.225Z,3.46
2023-02-03T05:54:45.212Z,3.55
2023-02-03T05:55:45.230Z,3.73
2023-02-03T05:56:45.234Z,3.80
2023-02-03T05:57:45.246Z,3.52
2023-02-03T05:58:45.238Z,3.25
2023-02-03T05:59:45.224Z,3.30
2023-02-03T06:00:45.228Z,3.41
2023-02-03T06:01:45.249Z,3.30
2023-02-03T06:02:45.246Z,3.36
2023-02-03T06:03:46.420Z,3.31
2023-02-03T06:04:45.255Z,3.18
2023-02-03T06:05:45.207Z,3.36
2023-02-03T06:06:45.195Z,3.55
2023-02-03T06:07:45.211Z,3.41
2023-02-03T06:08:45.191Z,3.34
2023-02-03T06:09:45.193Z,3.11
2023-02-03T06:10:45.213Z,2.75
2023-02-03T06:11:45.233Z,2.98
2023-02-03T06:12:45.257Z,3.02
2023-02-03T06:13:45.266Z,2.98
2023-02-03T06:14:45.268Z,2.83
2023-02-03T06:15:45.321Z,2.90
2023-02-03T06:16:45.402Z,2.79
2023-02-03T06:17:45.334Z,3.10
2023-02-03T06:18:45.354Z,2.90
2023-02-03T06:19:45.379Z,2.83
2023-02-03T06:20:45.385Z,2.79
2023-02-03T06:21:45.423Z,2.79
2023-02-03T06:22:45.413Z,2.78
2023-02-03T06:23:45.417Z,2.56
2023-02-03T06:24:45.440Z,2.92
2023-02-03T06:25:45.458Z,2.99
2023-02-03T06:26:45.459Z,2.95
2023-02-03T06:27:45.593Z,3.02
2023-02-03T06:28:45.489Z,3.02
2023-02-03T06:29:45.482Z,3.13
2023-02-03T06:30:45.593Z,2.99
2023-02-03T06:31:45.637Z,3.00
2023-02-03T08:25:53.370Z,3.06
2023-02-03T08:26:53.583Z,2.86
2023-02-03T08:27:53.893Z,2.51
2023-02-03T08:28:54.047Z,2.29
2023-02-03T08:29:54.317Z,2.30
2023-02-03T08:30:54.629Z,2.61
2023-02-03T08:31:54.864Z,2.51
2023-02-03T08:32:55.019Z,2.78
2023-02-03T08:33:55.244Z,2.81
2023-02-03T08:34:55.500Z,2.88
2023-02-03T08:35:55.670Z,2.98
2023-02-03T08:36:55.905Z,2.96
2023-02-03T08:37:56.124Z,3.23
2023-02-03T08:38:56.308Z,2.88
2023-02-03T08:39:56.541Z,2.95
2023-02-03T08:40:56.787Z,2.96
2023-02-03T08:41:57.010Z,2.98
2023-02-03T09:32:03.458Z,3.86
2023-02-03T09:33:03.626Z,3.82
2023-02-03T09:34:03.870Z,3.98
2023-02-03T09:35:04.058Z,3.87
2023-02-03T09:36:04.240Z,4.13
2023-02-03T09:37:04.565Z,3.89
2023-02-03T09:38:04.598Z,4.07
2023-02-03T09:39:04.786Z,4.05
2023-02-03T09:40:04.967Z,3.79
2023-02-03T09:41:11.694Z,3.93
2023-02-03T09:42:06.147Z,4.08
2023-02-03T09:43:05.201Z,4.17
2023-02-03T09:44:05.425Z,3.96
2023-02-03T09:45:05.183Z,4.21
2023-02-03T09:46:05.264Z,4.00
2023-02-03T09:47:08.213Z,4.10
2023-02-03T09:48:05.201Z,4.28
2023-02-03T09:49:05.201Z,4.30
2023-02-03T09:50:05.245Z,4.28
2023-02-03T09:51:05.207Z,4.18
2023-02-03T09:53:07.995Z,4.41
2023-02-03T09:54:05.281Z,4.41
2023-02-03T09:55:05.203Z,4.34
2023-02-03T09:56:05.190Z,4.52
2023-02-03T09:57:05.179Z,4.52
2023-02-03T09:58:05.176Z,4.67
2023-02-03T09:59:05.164Z,4.65
2023-02-03T10:00:06.103Z,4.67
2023-02-03T10:01:05.172Z,4.17
2023-02-03T10:03:05.137Z,4.45
2023-02-03T10:04:05.125Z,4.42
2023-02-03T10:05:05.133Z,4.32
2023-02-03T10:06:05.124Z,4.48
2023-02-03T10:07:05.152Z,4.53
2023-02-03T10:08:06.112Z,4.18
2023-02-03T10:09:05.131Z,4.45
2023-02-03T10:10:05.167Z,4.63
2023-02-03T10:11:05.189Z,4.67
2023-02-03T10:12:05.090Z,4.86
2023-02-03T10:13:05.577Z,4.73
2023-02-03T10:14:05.029Z,4.74
2023-02-03T10:15:05.034Z,4.62
2023-02-03T10:16:05.015Z,4.56
2023-02-03T10:17:05.095Z,4.58
2023-02-03T10:18:04.988Z,4.66
2023-02-03T10:20:05.060Z,4.59
2023-02-03T10:21:04.982Z,4.55
2023-02-03T10:22:05.565Z,4.76
2023-02-03T10:23:05.573Z,5.02
2023-02-03T10:24:04.972Z,4.93
2023-02-03T10:25:04.943Z,4.79
2023-02-03T10:26:04.952Z,4.67
2023-02-03T10:27:04.940Z,5.02
2023-02-03T10:28:05.018Z,5.07
2023-02-03T10:29:04.885Z,4.95
2023-02-03T10:30:04.897Z,5.11
2023-02-03T10:31:04.937Z,5.15
2023-02-03T10:32:05.005Z,4.88
2023-02-03T10:33:04.824Z,4.93
2023-02-03T10:34:04.809Z,4.90
2023-02-03T10:35:04.776Z,4.73
2023-02-03T10:36:04.793Z,4.58
2023-02-03T11:17:05.036Z,6.49
2023-02-03T11:20:05.056Z,5.90
2023-02-03T12:16:13.651Z,7.05
2023-02-03T12:17:13.833Z,7.09
2023-02-03T12:18:14.053Z,6.91
2023-02-03T12:19:14.265Z,6.99
2023-02-03T12:20:14.548Z,7.05
2023-02-03T12:21:14.645Z,7.23
2023-02-03T12:22:14.852Z,7.01
2023-02-03T12:23:15.060Z,7.15
2023-02-03T12:24:15.347Z,7.55
2023-02-03T12:25:15.521Z,7.37
2023-02-03T12:26:15.705Z,7.49
2023-02-03T12:27:15.882Z,7.22
2023-02-03T12:28:27.557Z,7.23
2023-02-03T12:30:15.890Z,7.26
2023-02-03T12:31:15.930Z,7.33
2023-02-03T12:32:15.729Z,7.40
2023-02-03T12:33:15.655Z,7.33
2023-02-03T12:34:15.649Z,7.51
2023-02-03T12:35:15.513Z,6.98
2023-02-03T12:36:15.441Z,7.36
2023-02-03T12:37:15.373Z,7.43
2023-02-03T12:38:15.295Z,7.33
2023-02-03T12:39:15.203Z,7.40
2023-02-03T12:40:15.140Z,7.60
2023-02-03T12:41:15.055Z,7.37
2023-02-03T12:42:14.953Z,7.40
2023-02-03T12:43:14.868Z,7.46
2023-02-03T12:44:14.788Z,7.74
2023-02-03T12:45:14.761Z,7.55
2023-02-03T12:46:14.782Z,7.60
2023-02-03T12:47:14.666Z,7.67
2023-02-03T12:48:14.593Z,7.08
2023-02-03T12:49:14.542Z,6.95
2023-02-03T12:50:14.500Z,7.37
2023-02-03T12:51:14.463Z,7.34
2023-02-03T12:52:14.425Z,7.23
2023-02-03T12:53:14.362Z,7.20
2023-02-03T12:54:14.318Z,7.18
2023-02-03T12:55:14.433Z,7.34
2023-02-03T12:56:14.632Z,7.15
2023-02-03T12:57:14.806Z,7.42
2023-02-03T12:58:15.082Z,7.42
2023-02-03T12:59:15.279Z,7.44
2023-02-03T13:00:15.607Z,7.01
2023-02-03T13:01:15.769Z,7.26
2023-02-03T13:02:16.020Z,7.44
2023-02-03T13:03:16.179Z,7.01
2023-02-03T13:04:16.383Z,7.15
2023-02-03T13:05:16.579Z,7.12
2023-02-03T13:06:16.772Z,7.27
2023-02-03T13:07:16.967Z,7.27
2023-02-03T13:08:17.176Z,7.18
2023-02-03T13:09:17.394Z,7.15
2023-02-03T13:10:17.531Z,7.15
2023-02-03T13:39:23.451Z,8.14
2023-02-03T13:40:23.721Z,7.96
2023-02-03T13:41:23.996Z,8.16
2023-02-03T13:42:24.166Z,8.14
2023-02-03T13:43:37.312Z,8.26
2023-02-03T13:45:24.242Z,8.51
2023-02-03T13:46:24.208Z,8.20
2023-02-03T13:47:24.064Z,8.30
2023-02-03T13:48:23.969Z,8.17
2023-02-03T13:49:23.863Z,8.13
2023-02-03T13:50:23.787Z,8.47
2023-02-03T13:51:23.664Z,8.57
2023-02-03T13:52:23.624Z,8.68
2023-02-03T13:53:23.586Z,8.60
2023-02-03T13:54:23.532Z,8.45
2023-02-03T13:55:23.497Z,8.51
2023-02-03T13:56:23.468Z,8.80
2023-02-03T13:57:23.436Z,8.48
2023-02-03T13:58:23.382Z,8.30
2023-02-03T14:11:23.555Z,8.51
2023-02-03T14:12:23.814Z,8.39
2023-02-03T14:57:33.462Z,8.75
2023-02-03T14:58:34.331Z,8.50
2023-02-03T14:59:33.569Z,8.24
2023-02-03T15:00:33.513Z,8.23
2023-02-03T15:01:33.735Z,8.40
2023-02-03T15:02:33.378Z,8.29
2023-02-03T15:29:33.500Z,8.69
2023-02-03T15:30:33.710Z,8.33
2023-02-03T15:31:34.152Z,8.39
2023-02-03T15:32:34.086Z,8.40
2023-02-03T15:33:35.118Z,8.55
2023-02-03T15:34:34.344Z,8.45
2023-02-03T15:35:34.310Z,8.55
2023-02-03T15:36:34.273Z,8.69
2023-02-03T15:37:34.221Z,8.76
2023-02-03T15:38:34.157Z,8.79
2023-02-03T15:39:34.091Z,8.75
2023-02-03T15:40:34.051Z,8.93
2023-02-03T15:41:34.011Z,8.99
2023-02-03T15:42:33.966Z,9.04
2023-02-03T15:43:33.919Z,8.36
2023-02-03T15:44:33.884Z,8.41
2023-02-03T15:45:34.126Z,8.24
2023-02-03T15:46:33.858Z,8.43
2023-02-03T15:47:33.680Z,8.45
2023-02-03T15:48:33.617Z,8.44
2023-02-03T15:49:33.570Z,8.37
2023-02-03T15:50:33.515Z,8.43
2023-02-03T15:51:33.462Z,8.26
2023-02-03T15:52:33.398Z,8.36
2023-02-03T15:53:46.705Z,8.30
2023-02-03T15:54:34.332Z,8.22
2023-02-03T16:24:33.446Z,8.26
2023-02-03T16:25:33.691Z,8.22
2023-02-03T16:26:33.854Z,8.34
2023-02-03T16:27:34.028Z,8.47
2023-02-03T16:28:34.265Z,8.48
2023-02-03T16:29:34.406Z,8.44
2023-02-03T16:30:34.773Z,8.43
2023-02-03T16:31:34.993Z,8.40
2023-02-03T16:32:35.086Z,8.52
2023-02-03T16:33:35.214Z,8.36
2023-02-03T16:34:35.477Z,8.23
2023-02-03T16:35:35.639Z,8.26
2023-02-03T16:36:35.873Z,8.30
2023-02-03T16:37:36.129Z,8.14
2023-02-03T16:38:36.333Z,8.13
2023-02-03T16:39:36.589Z,8.09
2023-02-03T16:40:36.781Z,8.09
2023-02-03T17:10:43.518Z,8.05
2023-02-03T17:11:43.697Z,8.06
2023-02-03T17:12:43.888Z,8.06
2023-02-03T17:13:44.086Z,8.09
2023-02-03T17:14:44.374Z,7.98
2023-02-03T17:15:44.533Z,7.78
2023-02-03T17:16:44.835Z,7.96
2023-02-03T17:17:44.977Z,7.98
2023-02-03T17:18:45.272Z,8.09
2023-02-03T17:19:45.428Z,8.22
2023-02-03T17:20:45.609Z,8.36
2023-02-03T17:21:45.843Z,8.22
2023-02-03T17:22:46.008Z,8.09
2023-02-03T17:23:46.208Z,8.32
2023-02-03T17:24:46.474Z,7.85
2023-02-03T17:25:46.665Z,7.89
2023-02-03T17:26:46.969Z,7.72
2023-02-03T17:27:47.135Z,7.63
2023-02-03T17:28:47.322Z,7.29
2023-02-03T17:29:47.666Z,7.65
2023-02-03T17:30:47.816Z,7.75
2023-02-03T17:31:47.978Z,7.86
2023-02-03T17:32:48.148Z,7.55
2023-02-03T17:33:48.434Z,7.68
2023-02-03T17:34:48.593Z,7.84
2023-02-03T17:35:48.855Z,7.95
2023-02-03T17:36:49.019Z,7.99
2023-02-03T17:37:49.292Z,8.09
2023-02-03T17:53:23.105Z,8.02
2023-02-03T17:54:23.311Z,8.17
2023-02-03T17:55:23.433Z,8.08
2023-02-03T17:56:23.529Z,8.08
2023-02-03T17:57:23.803Z,7.98
2023-02-03T17:58:23.867Z,8.16
2023-02-03T17:59:24.150Z,8.13
2023-02-03T18:00:24.233Z,8.14
2023-02-03T18:01:24.531Z,8.37
2023-02-03T18:02:24.585Z,8.17
2023-02-03T18:03:24.826Z,8.17
2023-02-03T18:04:24.920Z,8.27
2023-02-03T18:05:25.152Z,8.19
2023-02-03T18:23:28.147Z,8.16
2023-02-03T18:24:28.373Z,8.03
2023-02-03T18:25:28.515Z,8.06
2023-02-03T18:26:29.441Z,8.19
2023-02-03T18:27:28.631Z,8.33
2023-02-03T18:28:28.590Z,8.34
2023-02-03T18:29:28.587Z,8.40
2023-02-03T18:30:29.075Z,8.22
2023-02-03T18:31:28.792Z,8.47
2023-02-03T18:32:28.635Z,8.57
2023-02-03T18:33:28.630Z,8.62
2023-02-03T18:34:28.618Z,8.65
2023-02-03T18:35:28.634Z,8.67
2023-02-03T18:36:28.643Z,8.65
2023-02-03T18:37:28.664Z,8.52
2023-02-03T18:38:28.667Z,8.62
2023-02-03T18:39:28.672Z,8.48
2023-02-03T18:40:29.083Z,8.62
2023-02-03T18:41:28.691Z,8.62
2023-02-03T18:42:28.701Z,8.48
2023-02-03T18:43:28.708Z,8.58
2023-02-03T18:44:28.710Z,8.57
2023-02-03T18:45:28.718Z,8.27
2023-02-03T18:46:28.848Z,8.20
2023-02-03T18:47:28.817Z,8.32
2023-02-03T18:48:28.875Z,8.22
2023-02-03T18:49:28.908Z,8.17
2023-02-03T18:50:29.249Z,8.17
2023-02-03T18:51:28.978Z,8.05
2023-02-03T18:52:29.037Z,8.19
2023-02-03T18:53:29.093Z,8.17
2023-02-03T18:54:29.152Z,7.99
2023-02-03T18:55:29.203Z,8.19
2023-02-03T18:56:29.238Z,8.22
2023-02-03T18:57:29.255Z,8.20
2023-02-03T18:58:29.319Z,8.16
2023-02-03T18:59:29.376Z,8.13
2023-02-03T19:00:29.660Z,8.22
2023-02-03T19:01:29.518Z,8.16
2023-02-03T19:02:29.622Z,7.95
2023-02-03T19:03:29.635Z,8.05
2023-02-03T19:04:29.673Z,8.22
2023-02-03T19:05:29.674Z,8.26
2023-02-03T19:06:29.690Z,8.32
2023-02-03T19:07:29.711Z,8.45
2023-02-03T19:08:29.698Z,8.58
2023-02-03T19:09:29.701Z,8.55
2023-02-03T19:10:29.971Z,8.64
2023-02-03T20:55:38.145Z,7.63
2023-02-03T20:56:38.351Z,7.75
2023-02-03T20:57:38.551Z,7.82
2023-02-03T20:58:38.734Z,7.67
2023-02-03T20:59:38.919Z,7.65
2023-02-03T21:00:39.115Z,7.46
2023-02-03T21:01:39.342Z,7.61
2023-02-03T21:02:39.458Z,7.40
2023-02-03T21:03:39.656Z,7.58
2023-02-03T21:04:39.860Z,7.46
2023-02-03T21:05:40.043Z,7.51
2023-02-03T21:06:40.222Z,7.58
2023-02-03T21:07:40.418Z,7.61
2023-02-03T21:08:40.613Z,7.61
2023-02-03T21:09:40.789Z,7.47
2023-02-03T21:10:40.996Z,7.57
2023-02-03T21:11:41.180Z,7.58
2023-02-03T21:12:41.403Z,7.58
2023-02-03T21:13:41.583Z,7.51
2023-02-03T21:14:41.744Z,7.46
2023-02-03T21:15:41.931Z,7.54
2023-02-03T21:16:42.168Z,7.51
2023-02-03T21:17:42.313Z,7.46
2023-02-03T21:18:42.527Z,7.47
2023-02-03T21:19:42.725Z,7.58
2023-02-03T21:20:42.892Z,7.61
2023-02-03T21:21:43.088Z,7.71
2023-02-03T21:22:43.379Z,7.77
2023-02-03T21:23:44.126Z,7.81
2023-02-03T21:24:43.549Z,7.85
2023-02-03T21:25:43.607Z,7.89
2023-02-03T21:26:43.672Z,7.93
2023-02-03T21:27:43.741Z,7.96
2023-02-03T21:28:43.782Z,8.02
2023-02-03T21:29:43.810Z,7.99
2023-02-03T21:30:43.860Z,7.86
2023-02-03T21:31:43.909Z,8.02
2023-02-03T21:32:43.929Z,8.02
2023-02-03T21:33:44.020Z,7.96
2023-02-03T21:34:44.026Z,7.98
2023-02-03T21:35:44.078Z,8.02
2023-02-03T21:36:44.118Z,7.98
2023-02-03T21:37:44.186Z,7.99
2023-02-03T21:38:44.246Z,8.02
2023-02-03T21:39:44.313Z,8.05
2023-02-03T21:40:44.334Z,8.09
2023-02-03T21:41:44.387Z,8.05
2023-02-03T21:42:44.432Z,8.10
2023-02-03T21:43:44.491Z,8.10
2023-02-03T21:44:44.527Z,8.09
2023-02-03T21:45:44.633Z,8.10
2023-02-03T21:46:44.655Z,8.12
2023-02-03T22:55:48.308Z,7.27
